Ohyamamaru — JG5507 — position and weather

sailwx.info

Track history (hours):
 
Tides and Currents Weather Stations Pressure Air Temp Water Temp Dewpoint Dewpoint Depression Visibility Wind Speed Wind Dir Waves Ship Positions

Ohyamamaru

Last reported at 2014-Jul-25 20:34 UTC. Time now 2014-Jul-25 20:43 UTC.
Position N 35°38' E 139°45'.

Length 36 m; draft 4.4 m.

Type: Tug. MMSI: 431001114.

Date/timePositionNaut miles runAvg speedWind from/ knotsBaromVisibWave heightAir tempDewpointWater temp
2014-Jul-25 20:34N 35°38' E 139°45'0 0.0
2014-Jul-25 19:33N 35°38' E 139°45'0 0.0
2014-Jul-25 18:33N 35°38' E 139°45'0 0.0
2014-Jul-25 17:34N 35°38' E 139°45'0 0.0
2014-Jul-25 16:33N 35°38' E 139°45'0 0.0
2014-Jul-25 15:34N 35°38' E 139°45'0 0.0
2014-Jul-25 14:33N 35°38' E 139°45'0 0.0
2014-Jul-25 13:33N 35°38' E 139°45'0 0.0
2014-Jul-25 12:34N 35°38' E 139°45'0 0.0
2014-Jul-25 11:34N 35°38' E 139°45'0 0.0
2014-Jul-25 10:34N 35°38' E 139°45'0 0.0
2014-Jul-25 09:33N 35°38' E 139°45'0 0.0
2014-Jul-25 08:34N 35°38' E 139°45'0 0.0
2014-Jul-25 07:33N 35°38' E 139°45'0 0.0
2014-Jul-25 06:34N 35°38' E 139°45'0 0.0
2014-Jul-25 05:33N 35°38' E 139°45'0 0.0
2014-Jul-25 04:33N 35°38' E 139°45'0 0.0
2014-Jul-25 03:33N 35°38' E 139°45'0 0.0
2014-Jul-25 02:33N 35°38' E 139°45'0 0.0
2014-Jul-25 01:33N 35°38' E 139°45'0 0.0
2014-Jul-25 00:34N 35°38' E 139°45'0 0.0
2014-Jul-24 23:34N 35°38' E 139°45'0 0.0
2014-Jul-24 22:34N 35°38' E 139°45'0 0.0
2014-Jul-24 21:34N 35°38' E 139°45'0 0.0
2014-Jul-24 20:34N 35°38' E 139°45'0 0.0
2014-Jul-24 19:34N 35°38' E 139°45'0 0.0
2014-Jul-24 18:33N 35°38' E 139°45'0 0.0
2014-Jul-24 17:33N 35°38' E 139°45'0 0.0
2014-Jul-24 16:33N 35°38' E 139°45'0 0.0
2014-Jul-24 15:33N 35°38' E 139°45'0 0.0
2014-Jul-24 14:33N 35°38' E 139°45'0 0.0
2014-Jul-24 13:34N 35°38' E 139°45'0 0.0
2014-Jul-24 12:34N 35°38' E 139°45'0 0.0
2014-Jul-24 11:34N 35°38' E 139°45'0 0.0
2014-Jul-24 10:34N 35°38' E 139°45'0 0.0
2014-Jul-24 09:33N 35°38' E 139°45'0 0.0
2014-Jul-24 08:34N 35°38' E 139°45'0 0.0
2014-Jul-24 07:34N 35°38' E 139°45'0 0.0
2014-Jul-24 06:33N 35°38' E 139°45'0 0.0
2014-Jul-24 05:33N 35°38' E 139°45'0 0.0
2014-Jul-24 04:34N 35°38' E 139°45'0 0.0
2014-Jul-24 03:34N 35°38' E 139°45'0 0.0
2014-Jul-24 02:34N 35°38' E 139°45'0 0.0
2014-Jul-24 01:34N 35°38' E 139°45'0 0.0
2014-Jul-24 00:34N 35°38' E 139°45'1 1.4
2014-Jul-23 23:33N 35°37' E 139°46'3 2.6
2014-Jul-23 22:34N 35°35' E 139°48'4 3.5
2014-Jul-23 21:33N 35°38' E 139°46'0 0.4
2014-Jul-23 20:34N 35°38' E 139°45'0 0.0
2014-Jul-23 19:33N 35°38' E 139°45'0 0.0
2014-Jul-23 18:33N 35°38' E 139°45'0 0.0
2014-Jul-23 17:34N 35°38' E 139°45'0 0.0
2014-Jul-23 16:33N 35°38' E 139°45'0 0.0
2014-Jul-23 15:33N 35°38' E 139°45'0 0.0
2014-Jul-23 14:34N 35°38' E 139°45'0 0.0
2014-Jul-23 13:34N 35°38' E 139°45'0 0.0
2014-Jul-23 12:34N 35°38' E 139°45'0 0.0
2014-Jul-23 11:33N 35°38' E 139°45'0 0.0
2014-Jul-23 10:33N 35°38' E 139°45'2 1.9
2014-Jul-23 09:33N 35°37' E 139°47'1 0.6
2014-Jul-23 08:34N 35°36' E 139°47'2 2.4
2014-Jul-23 07:34N 35°38' E 139°45'0 0.0
2014-Jul-23 06:33N 35°38' E 139°45'0 0.0
2014-Jul-22 23:33N 35°38' E 139°45'3 3.0
2014-Jul-22 22:33N 35°35' E 139°47'4 4.1
2014-Jul-22 21:33N 35°34' E 139°51'5 4.8
2014-Jul-22 20:33N 35°36' E 139°47'0 0.5
2014-Jul-22 19:34N 35°37' E 139°46'0 0.2
2014-Jul-22 18:33N 35°37' E 139°46'1 1.4
2014-Jul-22 17:33N 35°38' E 139°45'0 0.0
2014-Jul-22 16:33N 35°38' E 139°45'0 0.0
2014-Jul-22 15:33N 35°38' E 139°45'0 0.0
2014-Jul-22 14:33N 35°38' E 139°45'0 0.0
2014-Jul-22 13:33N 35°38' E 139°45'0 0.0
2014-Jul-22 12:33N 35°38' E 139°45'0 0.0
2014-Jul-22 11:33N 35°38' E 139°45'0 0.0
2014-Jul-22 10:34N 35°38' E 139°45'0 0.0
2014-Jul-22 09:33N 35°38' E 139°45'0 0.0
2014-Jul-22 08:33N 35°38' E 139°45'0 0.0
2014-Jul-22 07:33N 35°38' E 139°45'0 0.0
2014-Jul-22 06:33N 35°38' E 139°45'0 0.0
2014-Jul-22 05:33N 35°38' E 139°45'0 0.0
2014-Jul-22 04:33N 35°38' E 139°45'0 0.0
2014-Jul-22 03:33N 35°38' E 139°45'0 0.0
2014-Jul-22 02:33N 35°38' E 139°45'2 2.2
2014-Jul-22 01:33N 35°36' E 139°47'1 1.0
2014-Jul-22 00:33N 35°37' E 139°46'1 1.3
2014-Jul-21 23:33N 35°38' E 139°45'0 0.0
2014-Jul-21 22:33N 35°38' E 139°45'0 0.0
2014-Jul-21 21:33N 35°38' E 139°45'0 0.0
2014-Jul-21 20:33N 35°38' E 139°45'0 0.0
2014-Jul-21 20:17N 35°38' E 139°45'0 0.0
2014-Jul-21 19:33N 35°38' E 139°45'0 0.0
2014-Jul-21 18:33N 35°38' E 139°45'0 0.0
2014-Jul-21 17:33N 35°38' E 139°45'0 0.0
2014-Jul-21 16:34N 35°38' E 139°45'0 0.0
2014-Jul-21 15:33N 35°38' E 139°45'0 0.0
2014-Jul-21 14:33N 35°38' E 139°45'0 0.0
2014-Jul-21 13:33N 35°38' E 139°45'0 0.0
2014-Jul-21 12:33N 35°38' E 139°45'0 0.0
2014-Jul-21 11:33N 35°38' E 139°45'0 0.0
2014-Jul-21 10:33N 35°38' E 139°45'0 0.0
2014-Jul-21 09:33N 35°38' E 139°45'0 0.0
2014-Jul-21 08:33N 35°38' E 139°45'2 2.2
2014-Jul-21 07:33N 35°36' E 139°47'2 2.2
2014-Jul-21 06:33N 35°38' E 139°45'0 0.0
2014-Jul-21 05:33N 35°38' E 139°45'0 0.0
2014-Jul-21 04:33N 35°38' E 139°45'0 0.0
2014-Jul-21 03:33N 35°38' E 139°45'0 0.0
2014-Jul-21 02:33N 35°38' E 139°45'0 0.0
2014-Jul-21 01:33N 35°38' E 139°45'0 0.0
2014-Jul-21 00:34N 35°38' E 139°45'2 1.8
2014-Jul-20 23:33N 35°37' E 139°47'2 1.8
2014-Jul-20 22:32N 35°38' E 139°45'0 0.0
2014-Jul-20 21:33N 35°38' E 139°45'0 0.0
2014-Jul-20 20:34N 35°38' E 139°45'0 0.0
2014-Jul-20 19:33N 35°38' E 139°45'0 0.0
2014-Jul-20 18:33N 35°38' E 139°45'0 0.0
2014-Jul-20 17:33N 35°38' E 139°45'0 0.0
2014-Jul-20 16:33N 35°38' E 139°45'0 0.0
2014-Jul-20 15:33N 35°38' E 139°45'0 0.0
2014-Jul-20 14:33N 35°38' E 139°45'0 0.0
2014-Jul-20 13:33N 35°38' E 139°45'0 0.0
2014-Jul-20 12:33N 35°38' E 139°45'0 0.0
2014-Jul-20 11:33N 35°38' E 139°45'0 0.0
2014-Jul-20 10:33N 35°38' E 139°45'0 0.0
2014-Jul-20 09:33N 35°38' E 139°45'0 0.0
2014-Jul-20 08:33N 35°38' E 139°45'0 0.0
2014-Jul-20 07:33N 35°38' E 139°45'0 0.0
2014-Jul-20 06:33N 35°38' E 139°45'0 0.0
2014-Jul-20 05:33N 35°38' E 139°45'0 0.0
2014-Jul-20 04:33N 35°38' E 139°45'0 0.0
2014-Jul-20 03:33N 35°38' E 139°45'0 0.0
2014-Jul-20 02:33N 35°38' E 139°45'0 0.0
2014-Jul-20 01:33N 35°38' E 139°45'0 0.0
2014-Jul-20 00:33N 35°38' E 139°45'0 0.0
2014-Jul-19 23:33N 35°38' E 139°45'0 0.0
2014-Jul-19 22:33N 35°38' E 139°45'0 0.0
2014-Jul-19 21:33N 35°38' E 139°45'0 0.0
2014-Jul-19 20:34N 35°38' E 139°45'0 0.0
2014-Jul-19 19:33N 35°38' E 139°45'0 0.0
2014-Jul-19 18:33N 35°38' E 139°45'0 0.0
2014-Jul-19 17:33N 35°38' E 139°45'0 0.0
2014-Jul-19 16:32N 35°38' E 139°45'0 0.0
2014-Jul-19 15:33N 35°38' E 139°45'0 0.0
2014-Jul-19 14:33N 35°38' E 139°45'0 0.0
2014-Jul-19 13:33N 35°38' E 139°45'0 0.0
2014-Jul-19 12:34N 35°38' E 139°45'0 0.0
2014-Jul-19 11:33N 35°38' E 139°45'0 0.0
2014-Jul-19 10:33N 35°38' E 139°45'0 0.0
2014-Jul-19 09:33N 35°38' E 139°45'0 0.0
2014-Jul-19 08:33N 35°38' E 139°45'0 0.0
2014-Jul-19 07:34N 35°38' E 139°45'0 0.0
2014-Jul-19 06:33N 35°38' E 139°45'0 0.0
2014-Jul-19 05:33N 35°38' E 139°45'0 0.0
2014-Jul-19 04:33N 35°38' E 139°45'0 0.0
2014-Jul-19 03:33N 35°38' E 139°45'0 0.0
2014-Jul-19 02:33N 35°38' E 139°45'0 0.0
2014-Jul-19 01:33N 35°38' E 139°45'0 0.0
2014-Jul-19 00:33N 35°38' E 139°45'0 0.0
2014-Jul-18 23:33N 35°38' E 139°45'0 0.0
2014-Jul-18 22:33N 35°38' E 139°45'0 0.0
2014-Jul-18 21:33N 35°38' E 139°45'0 0.0
2014-Jul-18 20:33N 35°38' E 139°45'0 0.0
2014-Jul-18 19:33N 35°38' E 139°45'0 0.0
2014-Jul-18 18:33N 35°38' E 139°45'0 0.0
2014-Jul-18 17:33N 35°38' E 139°45'0 0.0
2014-Jul-18 16:33N 35°38' E 139°45'0 0.0
2014-Jul-18 15:33N 35°38' E 139°45'0 0.0
2014-Jul-18 14:33N 35°38' E 139°45'0 0.0
2014-Jul-18 13:33N 35°38' E 139°45'0 0.0
2014-Jul-18 12:33N 35°38' E 139°45'0 0.0
2014-Jul-18 11:33N 35°38' E 139°45'0 0.0
2014-Jul-18 10:33N 35°38' E 139°45'0 0.0
2014-Jul-18 09:33N 35°38' E 139°45'0 0.0
2014-Jul-18 08:34N 35°38' E 139°45'0 0.0
2014-Jul-18 07:33N 35°38' E 139°45'0 0.0
2014-Jul-18 06:34N 35°38' E 139°45'0 0.0
2014-Jul-18 05:33N 35°38' E 139°45'0 0.0
2014-Jul-18 04:33N 35°38' E 139°45'0 0.0
2014-Jul-18 03:33N 35°38' E 139°45'0 0.0
2014-Jul-18 02:34N 35°38' E 139°45'0 0.0
2014-Jul-18 01:33N 35°38' E 139°45'0 0.0
2014-Jul-18 00:33N 35°38' E 139°45'0 0.0
2014-Jul-17 23:34N 35°38' E 139°45'3 3.4
2014-Jul-17 22:33N 35°37' E 139°50'4 4.4
2014-Jul-17 21:33N 35°34' E 139°52'7 7.2
2014-Jul-17 20:33N 35°38' E 139°46'0 0.0
2014-Jul-17 19:33N 35°38' E 139°46'0 0.0
2014-Jul-17 18:33N 35°38' E 139°46'0 0.0
2014-Jul-17 17:33N 35°38' E 139°46'0 0.0
2014-Jul-17 16:33N 35°38' E 139°46'0 0.0
2014-Jul-17 15:33N 35°38' E 139°46'0 0.0
2014-Jul-17 14:33N 35°38' E 139°46'0 0.0
2014-Jul-17 13:33N 35°38' E 139°46'0 0.0
2014-Jul-17 12:33N 35°38' E 139°46'0 0.0
2014-Jul-17 11:33N 35°38' E 139°46'0 0.0
2014-Jul-17 10:33N 35°38' E 139°46'0 0.0
2014-Jul-17 09:33N 35°38' E 139°46'1 1.5
2014-Jul-17 08:33N 35°37' E 139°46'1 1.5
2014-Jul-17 07:33N 35°38' E 139°45'0 0.0
2014-Jul-17 06:33N 35°38' E 139°45'0 0.0
2014-Jul-17 05:33N 35°38' E 139°45'0 0.0
2014-Jul-17 04:33N 35°38' E 139°45'0 0.0
2014-Jul-17 03:31N 35°38' E 139°45'0 0.0
2014-Jul-17 02:33N 35°38' E 139°45'0 0.0
2014-Jul-17 01:33N 35°38' E 139°45'0 0.0
2014-Jul-17 00:33N 35°38' E 139°45'2 2.1
2014-Jul-16 23:34N 35°36' E 139°46'1 1.2
2014-Jul-16 22:33N 35°35' E 139°47'1 0.9
2014-Jul-16 21:33N 35°36' E 139°47'2 2.4
2014-Jul-16 20:33N 35°38' E 139°46'0 0.0
2014-Jul-16 19:33N 35°38' E 139°46'0 0.0
2014-Jul-16 18:33N 35°38' E 139°46'0 0.0
2014-Jul-16 17:33N 35°38' E 139°46'0 0.0
2014-Jul-16 16:33N 35°38' E 139°46'0 0.0
2014-Jul-16 15:33N 35°38' E 139°46'0 0.0
2014-Jul-16 14:33N 35°38' E 139°46'0 0.0
2014-Jul-16 13:34N 35°38' E 139°46'0 0.0
2014-Jul-16 12:33N 35°38' E 139°46'0 0.0
2014-Jul-16 11:33N 35°38' E 139°46'0 0.0
2014-Jul-16 10:33N 35°38' E 139°46'0 0.0
2014-Jul-16 09:34N 35°38' E 139°46'0 0.0
2014-Jul-16 08:33N 35°38' E 139°46'0 0.0
2014-Jul-16 07:33N 35°38' E 139°46'0 0.0
2014-Jul-16 06:33N 35°38' E 139°46'0 0.0
2014-Jul-16 05:33N 35°38' E 139°46'0 0.0
2014-Jul-16 04:33N 35°38' E 139°46'0 0.0
2014-Jul-16 03:33N 35°38' E 139°46'0 0.0
2014-Jul-16 02:33N 35°38' E 139°46'0 0.0
2014-Jul-16 01:33N 35°38' E 139°46'0 0.0
2014-Jul-16 00:33N 35°38' E 139°46'0 0.0
2014-Jul-15 23:33N 35°38' E 139°46'2 2.3
2014-Jul-15 22:34N 35°36' E 139°46'3 3.4
2014-Jul-15 21:33N 35°34' E 139°50'  
Track history (hours):
 
Tides and Currents Weather Stations Pressure Air Temp Water Temp Dewpoint Dewpoint Depression Visibility Wind Speed Wind Dir Waves Ship Positions

Ohyamamaru

Last reported at 2014-Jul-25 20:34 UTC. Time now 2014-Jul-25 20:43 UTC.
Position N 35°38' E 139°45'.

Length 36 m; draft 4.4 m.

Type: Tug. MMSI: 431001114.

Date/timePositionNaut miles runAvg speedWind from/ knotsBaromVisibWave heightAir tempDewpointWater temp
2014-Jul-25 20:34N 35°38' E 139°45'0 0.0
2014-Jul-25 19:33N 35°38' E 139°45'0 0.0
2014-Jul-25 18:33N 35°38' E 139°45'0 0.0
2014-Jul-25 17:34N 35°38' E 139°45'0 0.0
2014-Jul-25 16:33N 35°38' E 139°45'0 0.0
2014-Jul-25 15:34N 35°38' E 139°45'0 0.0
2014-Jul-25 14:33N 35°38' E 139°45'0 0.0
2014-Jul-25 13:33N 35°38' E 139°45'0 0.0
2014-Jul-25 12:34N 35°38' E 139°45'0 0.0
2014-Jul-25 11:34N 35°38' E 139°45'0 0.0
2014-Jul-25 10:34N 35°38' E 139°45'0 0.0
2014-Jul-25 09:33N 35°38' E 139°45'0 0.0
2014-Jul-25 08:34N 35°38' E 139°45'0 0.0
2014-Jul-25 07:33N 35°38' E 139°45'0 0.0
2014-Jul-25 06:34N 35°38' E 139°45'0 0.0
2014-Jul-25 05:33N 35°38' E 139°45'0 0.0
2014-Jul-25 04:33N 35°38' E 139°45'0 0.0
2014-Jul-25 03:33N 35°38' E 139°45'0 0.0
2014-Jul-25 02:33N 35°38' E 139°45'0 0.0
2014-Jul-25 01:33N 35°38' E 139°45'0 0.0
2014-Jul-25 00:34N 35°38' E 139°45'0 0.0
2014-Jul-24 23:34N 35°38' E 139°45'0 0.0
2014-Jul-24 22:34N 35°38' E 139°45'0 0.0
2014-Jul-24 21:34N 35°38' E 139°45'0 0.0
2014-Jul-24 20:34N 35°38' E 139°45'0 0.0
2014-Jul-24 19:34N 35°38' E 139°45'0 0.0
2014-Jul-24 18:33N 35°38' E 139°45'0 0.0
2014-Jul-24 17:33N 35°38' E 139°45'0 0.0
2014-Jul-24 16:33N 35°38' E 139°45'0 0.0
2014-Jul-24 15:33N 35°38' E 139°45'0 0.0
2014-Jul-24 14:33N 35°38' E 139°45'0 0.0
2014-Jul-24 13:34N 35°38' E 139°45'0 0.0
2014-Jul-24 12:34N 35°38' E 139°45'0 0.0
2014-Jul-24 11:34N 35°38' E 139°45'0 0.0
2014-Jul-24 10:34N 35°38' E 139°45'0 0.0
2014-Jul-24 09:33N 35°38' E 139°45'0 0.0
2014-Jul-24 08:34N 35°38' E 139°45'0 0.0
2014-Jul-24 07:34N 35°38' E 139°45'0 0.0
2014-Jul-24 06:33N 35°38' E 139°45'0 0.0
2014-Jul-24 05:33N 35°38' E 139°45'0 0.0
2014-Jul-24 04:34N 35°38' E 139°45'0 0.0
2014-Jul-24 03:34N 35°38' E 139°45'0 0.0
2014-Jul-24 02:34N 35°38' E 139°45'0 0.0
2014-Jul-24 01:34N 35°38' E 139°45'0 0.0
2014-Jul-24 00:34N 35°38' E 139°45'1 1.4
2014-Jul-23 23:33N 35°37' E 139°46'3 2.6
2014-Jul-23 22:34N 35°35' E 139°48'4 3.5
2014-Jul-23 21:33N 35°38' E 139°46'0 0.4
2014-Jul-23 20:34N 35°38' E 139°45'0 0.0
2014-Jul-23 19:33N 35°38' E 139°45'0 0.0
2014-Jul-23 18:33N 35°38' E 139°45'0 0.0
2014-Jul-23 17:34N 35°38' E 139°45'0 0.0
2014-Jul-23 16:33N 35°38' E 139°45'0 0.0
2014-Jul-23 15:33N 35°38' E 139°45'0 0.0
2014-Jul-23 14:34N 35°38' E 139°45'0 0.0
2014-Jul-23 13:34N 35°38' E 139°45'0 0.0
2014-Jul-23 12:34N 35°38' E 139°45'0 0.0
2014-Jul-23 11:33N 35°38' E 139°45'0 0.0
2014-Jul-23 10:33N 35°38' E 139°45'2 1.9
2014-Jul-23 09:33N 35°37' E 139°47'1 0.6
2014-Jul-23 08:34N 35°36' E 139°47'2 2.4
2014-Jul-23 07:34N 35°38' E 139°45'0 0.0
2014-Jul-23 06:33N 35°38' E 139°45'0 0.0
2014-Jul-22 23:33N 35°38' E 139°45'3 3.0
2014-Jul-22 22:33N 35°35' E 139°47'4 4.1
2014-Jul-22 21:33N 35°34' E 139°51'5 4.8
2014-Jul-22 20:33N 35°36' E 139°47'0 0.5
2014-Jul-22 19:34N 35°37' E 139°46'0 0.2
2014-Jul-22 18:33N 35°37' E 139°46'1 1.4
2014-Jul-22 17:33N 35°38' E 139°45'0 0.0
2014-Jul-22 16:33N 35°38' E 139°45'0 0.0
2014-Jul-22 15:33N 35°38' E 139°45'0 0.0
2014-Jul-22 14:33N 35°38' E 139°45'0 0.0
2014-Jul-22 13:33N 35°38' E 139°45'0 0.0
2014-Jul-22 12:33N 35°38' E 139°45'0 0.0
2014-Jul-22 11:33N 35°38' E 139°45'0 0.0
2014-Jul-22 10:34N 35°38' E 139°45'0 0.0
2014-Jul-22 09:33N 35°38' E 139°45'0 0.0
2014-Jul-22 08:33N 35°38' E 139°45'0 0.0
2014-Jul-22 07:33N 35°38' E 139°45'0 0.0
2014-Jul-22 06:33N 35°38' E 139°45'0 0.0
2014-Jul-22 05:33N 35°38' E 139°45'0 0.0
2014-Jul-22 04:33N 35°38' E 139°45'0 0.0
2014-Jul-22 03:33N 35°38' E 139°45'0 0.0
2014-Jul-22 02:33N 35°38' E 139°45'2 2.2
2014-Jul-22 01:33N 35°36' E 139°47'1 1.0
2014-Jul-22 00:33N 35°37' E 139°46'1 1.3
2014-Jul-21 23:33N 35°38' E 139°45'0 0.0
2014-Jul-21 22:33N 35°38' E 139°45'0 0.0
2014-Jul-21 21:33N 35°38' E 139°45'0 0.0
2014-Jul-21 20:33N 35°38' E 139°45'0 0.0
2014-Jul-21 20:17N 35°38' E 139°45'0 0.0
2014-Jul-21 19:33N 35°38' E 139°45'0 0.0
2014-Jul-21 18:33N 35°38' E 139°45'0 0.0
2014-Jul-21 17:33N 35°38' E 139°45'0 0.0
2014-Jul-21 16:34N 35°38' E 139°45'0 0.0
2014-Jul-21 15:33N 35°38' E 139°45'0 0.0
2014-Jul-21 14:33N 35°38' E 139°45'0 0.0
2014-Jul-21 13:33N 35°38' E 139°45'0 0.0
2014-Jul-21 12:33N 35°38' E 139°45'0 0.0
2014-Jul-21 11:33N 35°38' E 139°45'0 0.0
2014-Jul-21 10:33N 35°38' E 139°45'0 0.0
2014-Jul-21 09:33N 35°38' E 139°45'0 0.0
2014-Jul-21 08:33N 35°38' E 139°45'2 2.2
2014-Jul-21 07:33N 35°36' E 139°47'2 2.2
2014-Jul-21 06:33N 35°38' E 139°45'0 0.0
2014-Jul-21 05:33N 35°38' E 139°45'0 0.0
2014-Jul-21 04:33N 35°38' E 139°45'0 0.0
2014-Jul-21 03:33N 35°38' E 139°45'0 0.0
2014-Jul-21 02:33N 35°38' E 139°45'0 0.0
2014-Jul-21 01:33N 35°38' E 139°45'0 0.0
2014-Jul-21 00:34N 35°38' E 139°45'2 1.8
2014-Jul-20 23:33N 35°37' E 139°47'2 1.8
2014-Jul-20 22:32N 35°38' E 139°45'0 0.0
2014-Jul-20 21:33N 35°38' E 139°45'0 0.0
2014-Jul-20 20:34N 35°38' E 139°45'0 0.0
2014-Jul-20 19:33N 35°38' E 139°45'0 0.0
2014-Jul-20 18:33N 35°38' E 139°45'0 0.0
2014-Jul-20 17:33N 35°38' E 139°45'0 0.0
2014-Jul-20 16:33N 35°38' E 139°45'0 0.0
2014-Jul-20 15:33N 35°38' E 139°45'0 0.0
2014-Jul-20 14:33N 35°38' E 139°45'0 0.0
2014-Jul-20 13:33N 35°38' E 139°45'0 0.0
2014-Jul-20 12:33N 35°38' E 139°45'0 0.0
2014-Jul-20 11:33N 35°38' E 139°45'0 0.0
2014-Jul-20 10:33N 35°38' E 139°45'0 0.0
2014-Jul-20 09:33N 35°38' E 139°45'0 0.0
2014-Jul-20 08:33N 35°38' E 139°45'0 0.0
2014-Jul-20 07:33N 35°38' E 139°45'0 0.0
2014-Jul-20 06:33N 35°38' E 139°45'0 0.0
2014-Jul-20 05:33N 35°38' E 139°45'0 0.0
2014-Jul-20 04:33N 35°38' E 139°45'0 0.0
2014-Jul-20 03:33N 35°38' E 139°45'0 0.0
2014-Jul-20 02:33N 35°38' E 139°45'0 0.0
2014-Jul-20 01:33N 35°38' E 139°45'0 0.0
2014-Jul-20 00:33N 35°38' E 139°45'0 0.0
2014-Jul-19 23:33N 35°38' E 139°45'0 0.0
2014-Jul-19 22:33N 35°38' E 139°45'0 0.0
2014-Jul-19 21:33N 35°38' E 139°45'0 0.0
2014-Jul-19 20:34N 35°38' E 139°45'0 0.0
2014-Jul-19 19:33N 35°38' E 139°45'0 0.0
2014-Jul-19 18:33N 35°38' E 139°45'0 0.0
2014-Jul-19 17:33N 35°38' E 139°45'0 0.0
2014-Jul-19 16:32N 35°38' E 139°45'0 0.0
2014-Jul-19 15:33N 35°38' E 139°45'0 0.0
2014-Jul-19 14:33N 35°38' E 139°45'0 0.0
2014-Jul-19 13:33N 35°38' E 139°45'0 0.0
2014-Jul-19 12:34N 35°38' E 139°45'0 0.0
2014-Jul-19 11:33N 35°38' E 139°45'0 0.0
2014-Jul-19 10:33N 35°38' E 139°45'0 0.0
2014-Jul-19 09:33N 35°38' E 139°45'0 0.0
2014-Jul-19 08:33N 35°38' E 139°45'0 0.0
2014-Jul-19 07:34N 35°38' E 139°45'0 0.0
2014-Jul-19 06:33N 35°38' E 139°45'0 0.0
2014-Jul-19 05:33N 35°38' E 139°45'0 0.0
2014-Jul-19 04:33N 35°38' E 139°45'0 0.0
2014-Jul-19 03:33N 35°38' E 139°45'0 0.0
2014-Jul-19 02:33N 35°38' E 139°45'0 0.0
2014-Jul-19 01:33N 35°38' E 139°45'0 0.0
2014-Jul-19 00:33N 35°38' E 139°45'0 0.0
2014-Jul-18 23:33N 35°38' E 139°45'0 0.0
2014-Jul-18 22:33N 35°38' E 139°45'0 0.0
2014-Jul-18 21:33N 35°38' E 139°45'0 0.0
2014-Jul-18 20:33N 35°38' E 139°45'0 0.0
2014-Jul-18 19:33N 35°38' E 139°45'0 0.0
2014-Jul-18 18:33N 35°38' E 139°45'0 0.0
2014-Jul-18 17:33N 35°38' E 139°45'0 0.0
2014-Jul-18 16:33N 35°38' E 139°45'0 0.0
2014-Jul-18 15:33N 35°38' E 139°45'0 0.0
2014-Jul-18 14:33N 35°38' E 139°45'0 0.0
2014-Jul-18 13:33N 35°38' E 139°45'0 0.0
2014-Jul-18 12:33N 35°38' E 139°45'0 0.0
2014-Jul-18 11:33N 35°38' E 139°45'0 0.0
2014-Jul-18 10:33N 35°38' E 139°45'0 0.0
2014-Jul-18 09:33N 35°38' E 139°45'0 0.0
2014-Jul-18 08:34N 35°38' E 139°45'0 0.0
2014-Jul-18 07:33N 35°38' E 139°45'0 0.0
2014-Jul-18 06:34N 35°38' E 139°45'0 0.0
2014-Jul-18 05:33N 35°38' E 139°45'0 0.0
2014-Jul-18 04:33N 35°38' E 139°45'0 0.0
2014-Jul-18 03:33N 35°38' E 139°45'0 0.0
2014-Jul-18 02:34N 35°38' E 139°45'0 0.0
2014-Jul-18 01:33N 35°38' E 139°45'0 0.0
2014-Jul-18 00:33N 35°38' E 139°45'0 0.0
2014-Jul-17 23:34N 35°38' E 139°45'3 3.4
2014-Jul-17 22:33N 35°37' E 139°50'4 4.4
2014-Jul-17 21:33N 35°34' E 139°52'7 7.2
2014-Jul-17 20:33N 35°38' E 139°46'0 0.0
2014-Jul-17 19:33N 35°38' E 139°46'0 0.0
2014-Jul-17 18:33N 35°38' E 139°46'0 0.0
2014-Jul-17 17:33N 35°38' E 139°46'0 0.0
2014-Jul-17 16:33N 35°38' E 139°46'0 0.0
2014-Jul-17 15:33N 35°38' E 139°46'0 0.0
2014-Jul-17 14:33N 35°38' E 139°46'0 0.0
2014-Jul-17 13:33N 35°38' E 139°46'0 0.0
2014-Jul-17 12:33N 35°38' E 139°46'0 0.0
2014-Jul-17 11:33N 35°38' E 139°46'0 0.0
2014-Jul-17 10:33N 35°38' E 139°46'0 0.0
2014-Jul-17 09:33N 35°38' E 139°46'1 1.5
2014-Jul-17 08:33N 35°37' E 139°46'1 1.5
2014-Jul-17 07:33N 35°38' E 139°45'0 0.0
2014-Jul-17 06:33N 35°38' E 139°45'0 0.0
2014-Jul-17 05:33N 35°38' E 139°45'0 0.0
2014-Jul-17 04:33N 35°38' E 139°45'0 0.0
2014-Jul-17 03:31N 35°38' E 139°45'0 0.0
2014-Jul-17 02:33N 35°38' E 139°45'0 0.0
2014-Jul-17 01:33N 35°38' E 139°45'0 0.0
2014-Jul-17 00:33N 35°38' E 139°45'2 2.1
2014-Jul-16 23:34N 35°36' E 139°46'1 1.2
2014-Jul-16 22:33N 35°35' E 139°47'1 0.9
2014-Jul-16 21:33N 35°36' E 139°47'2 2.4
2014-Jul-16 20:33N 35°38' E 139°46'0 0.0
2014-Jul-16 19:33N 35°38' E 139°46'0 0.0
2014-Jul-16 18:33N 35°38' E 139°46'0 0.0
2014-Jul-16 17:33N 35°38' E 139°46'0 0.0
2014-Jul-16 16:33N 35°38' E 139°46'0 0.0
2014-Jul-16 15:33N 35°38' E 139°46'0 0.0
2014-Jul-16 14:33N 35°38' E 139°46'0 0.0
2014-Jul-16 13:34N 35°38' E 139°46'0 0.0
2014-Jul-16 12:33N 35°38' E 139°46'0 0.0
2014-Jul-16 11:33N 35°38' E 139°46'0 0.0
2014-Jul-16 10:33N 35°38' E 139°46'0 0.0
2014-Jul-16 09:34N 35°38' E 139°46'0 0.0
2014-Jul-16 08:33N 35°38' E 139°46'0 0.0
2014-Jul-16 07:33N 35°38' E 139°46'0 0.0
2014-Jul-16 06:33N 35°38' E 139°46'0 0.0
2014-Jul-16 05:33N 35°38' E 139°46'0 0.0
2014-Jul-16 04:33N 35°38' E 139°46'0 0.0
2014-Jul-16 03:33N 35°38' E 139°46'0 0.0
2014-Jul-16 02:33N 35°38' E 139°46'0 0.0
2014-Jul-16 01:33N 35°38' E 139°46'0 0.0
2014-Jul-16 00:33N 35°38' E 139°46'0 0.0
2014-Jul-15 23:33N 35°38' E 139°46'2 2.3
2014-Jul-15 22:34N 35°36' E 139°46'3 3.4
2014-Jul-15 21:33N 35°34' E 139°50'  

Dump ship's entire track history